createdAt,value
2017-11-03T00:00:17.990Z,1009.50
2017-11-03T00:01:17.979Z,1009.46
2017-11-03T00:02:17.971Z,1009.45
2017-11-03T00:03:17.960Z,1009.48
2017-11-03T00:04:17.948Z,1009.48
2017-11-03T00:05:17.937Z,1009.50
2017-11-03T00:06:17.926Z,1009.50
2017-11-03T00:07:17.914Z,1009.49
2017-11-03T00:08:17.903Z,1009.49
2017-11-03T00:09:17.893Z,1009.49
2017-11-03T00:10:17.884Z,1009.48
2017-11-03T00:11:17.873Z,1009.49
2017-11-03T00:12:17.861Z,1009.47
2017-11-03T00:13:17.851Z,1009.49
2017-11-03T00:14:17.842Z,1009.50
2017-11-03T00:15:17.828Z,1009.48
2017-11-03T00:16:17.821Z,1009.50
2017-11-03T00:17:17.808Z,1009.51
2017-11-03T00:18:17.797Z,1009.49
2017-11-03T00:19:17.783Z,1009.53
2017-11-03T00:20:17.784Z,1009.47
2017-11-03T00:21:17.762Z,1009.51
2017-11-03T00:22:17.754Z,1009.46
2017-11-03T00:23:17.740Z,1009.46
2017-11-03T00:24:17.733Z,1009.53
2017-11-03T00:25:17.719Z,1009.50
2017-11-03T00:26:17.718Z,1009.45
2017-11-03T00:27:17.701Z,1009.50
2017-11-03T00:28:17.686Z,1009.53
2017-11-03T00:29:17.677Z,1009.54
2017-11-03T00:30:17.675Z,1009.50
2017-11-03T00:31:17.652Z,1009.49
2017-11-03T00:32:17.648Z,1009.47
2017-11-03T00:33:17.636Z,1009.47
2017-11-03T00:34:17.672Z,1009.49
2017-11-03T00:35:17.615Z,1009.48
2017-11-03T00:36:17.601Z,1009.45
2017-11-03T00:37:17.590Z,1009.48
2017-11-03T00:38:17.579Z,1009.45
2017-11-03T00:39:17.574Z,1009.50
2017-11-03T00:40:17.556Z,1009.49
2017-11-03T00:41:17.554Z,1009.46
2017-11-03T00:42:17.539Z,1009.45
2017-11-03T00:43:17.525Z,1009.48
2017-11-03T00:44:17.514Z,1009.45
2017-11-03T00:45:17.504Z,1009.43
2017-11-03T00:46:17.502Z,1009.42
2017-11-03T00:47:17.480Z,1009.46
2017-11-03T00:48:17.475Z,1009.48
2017-11-03T00:49:17.461Z,1009.49
2017-11-03T00:50:17.450Z,1009.52
2017-11-03T00:51:17.439Z,1009.49
2017-11-03T00:52:17.428Z,1009.51
2017-11-03T00:53:17.417Z,1009.50
2017-11-03T00:54:17.405Z,1009.52
2017-11-03T00:55:17.396Z,1009.53
2017-11-03T00:56:17.385Z,1009.53
2017-11-03T00:57:17.372Z,1009.55
2017-11-03T00:58:17.362Z,1009.57
2017-11-03T00:59:17.353Z,1009.55
2017-11-03T01:00:17.338Z,1009.61
2017-11-03T01:01:17.335Z,1009.54
2017-11-03T01:02:17.317Z,1009.58
2017-11-03T01:03:17.306Z,1009.55
2017-11-03T01:04:17.296Z,1009.51
2017-11-03T01:05:17.293Z,1009.50
2017-11-03T01:06:17.274Z,1009.55
2017-11-03T01:07:17.270Z,1009.50
2017-11-03T01:08:17.254Z,1009.55
2017-11-03T01:09:17.251Z,1009.57
2017-11-03T01:10:17.233Z,1009.58
2017-11-03T01:11:17.223Z,1009.55
2017-11-03T01:12:17.211Z,1009.57
2017-11-03T01:13:17.202Z,1009.57
2017-11-03T01:14:17.193Z,1009.57
2017-11-03T01:15:17.190Z,1009.52
2017-11-03T01:16:17.166Z,1009.47
2017-11-03T01:17:17.156Z,1009.52
2017-11-03T01:18:17.144Z,1009.53
2017-11-03T01:19:17.134Z,1009.54
2017-11-03T01:20:17.123Z,1009.52
2017-11-03T01:21:17.112Z,1009.51
2017-11-03T01:22:17.100Z,1009.50
2017-11-03T01:23:17.090Z,1009.49
2017-11-03T01:24:17.083Z,1009.48
2017-11-03T01:25:17.070Z,1009.46
2017-11-03T01:26:17.753Z,1009.46
2017-11-03T01:27:17.047Z,1009.48
2017-11-03T01:28:17.038Z,1009.46
2017-11-03T01:29:17.029Z,1009.47
2017-11-03T01:30:17.016Z,1009.49
2017-11-03T01:31:17.007Z,1009.53
2017-11-03T01:32:16.993Z,1009.54
2017-11-03T01:33:16.982Z,1009.55
2017-11-03T01:34:16.973Z,1009.57
2017-11-03T01:35:16.961Z,1009.56
2017-11-03T01:36:16.958Z,1009.60
2017-11-03T01:37:16.955Z,1009.57
2017-11-03T01:38:16.928Z,1009.55
2017-11-03T01:39:16.919Z,1009.58
2017-11-03T01:40:16.907Z,1009.57
2017-11-03T01:41:16.896Z,1009.57
2017-11-03T01:42:16.892Z,1009.53
2017-11-03T01:43:16.874Z,1009.56
2017-11-03T01:44:16.862Z,1009.54
2017-11-03T01:45:16.852Z,1009.57
2017-11-03T01:46:16.841Z,1009.52
2017-11-03T01:47:16.831Z,1009.54
2017-11-03T01:48:16.825Z,1009.53
2017-11-03T01:49:16.809Z,1009.51
2017-11-03T01:50:16.799Z,1009.50
2017-11-03T01:51:16.788Z,1009.51
2017-11-03T01:52:16.780Z,1009.53
2017-11-03T01:53:16.773Z,1009.53
2017-11-03T01:54:16.769Z,1009.51
2017-11-03T01:55:16.745Z,1009.52
2017-11-03T01:56:16.737Z,1009.49
2017-11-03T01:57:16.726Z,1009.50
2017-11-03T01:58:16.717Z,1009.51
2017-11-03T01:59:16.702Z,1009.49
2017-11-03T02:00:16.691Z,1009.49
2017-11-03T02:01:16.682Z,1009.50
2017-11-03T02:02:16.675Z,1009.51
2017-11-03T02:03:16.659Z,1009.51
2017-11-03T02:04:16.649Z,1009.55
2017-11-03T02:05:16.639Z,1009.53
2017-11-03T02:06:16.627Z,1009.51
2017-11-03T02:07:16.619Z,1009.50
2017-11-03T02:08:16.606Z,1009.48
2017-11-03T02:09:16.596Z,1009.50
2017-11-03T02:10:16.585Z,1009.52
2017-11-03T02:11:16.578Z,1009.48
2017-11-03T02:12:16.565Z,1009.52
2017-11-03T02:13:16.557Z,1009.51
2017-11-03T02:14:16.542Z,1009.51
2017-11-03T02:15:16.533Z,1009.50
2017-11-03T02:16:16.523Z,1009.49
2017-11-03T02:17:16.514Z,1009.52
2017-11-03T02:18:16.499Z,1009.48
2017-11-03T02:19:16.490Z,1009.49
2017-11-03T02:20:16.482Z,1009.48
2017-11-03T02:21:16.467Z,1009.49
2017-11-03T02:22:16.458Z,1009.54
2017-11-03T02:23:16.446Z,1009.52
2017-11-03T02:24:16.434Z,1009.53
2017-11-03T02:25:16.429Z,1009.53
2017-11-03T02:26:16.423Z,1009.56
2017-11-03T02:27:16.402Z,1009.54
2017-11-03T02:28:16.396Z,1009.54
2017-11-03T02:29:16.384Z,1009.53
2017-11-03T02:30:16.370Z,1009.54
2017-11-03T02:31:16.359Z,1009.58
2017-11-03T02:32:16.353Z,1009.53
2017-11-03T02:33:16.342Z,1009.55
2017-11-03T02:34:16.329Z,1009.50
2017-11-03T02:35:16.318Z,1009.52
2017-11-03T02:36:16.309Z,1009.52
2017-11-03T02:37:16.304Z,1009.53
2017-11-03T02:38:16.288Z,1009.53
2017-11-03T02:39:16.275Z,1009.54
2017-11-03T02:40:16.268Z,1009.49
2017-11-03T02:41:16.256Z,1009.57
2017-11-03T02:42:16.250Z,1009.56
2017-11-03T02:43:16.232Z,1009.56
2017-11-03T02:44:16.227Z,1009.57
2017-11-03T02:45:16.213Z,1009.57
2017-11-03T02:46:16.201Z,1009.54
2017-11-03T02:47:16.191Z,1009.57
2017-11-03T02:48:16.185Z,1009.56
2017-11-03T02:49:16.168Z,1009.56
2017-11-03T02:50:16.159Z,1009.55
2017-11-03T02:51:16.148Z,1009.57
2017-11-03T02:52:16.138Z,1009.59
2017-11-03T02:53:16.127Z,1009.62
2017-11-03T02:54:16.116Z,1009.60
2017-11-03T02:55:16.111Z,1009.59
2017-11-03T02:56:16.097Z,1009.62
2017-11-03T02:57:16.088Z,1009.64
2017-11-03T02:58:16.073Z,1009.62
2017-11-03T02:59:16.066Z,1009.63
2017-11-03T03:00:16.053Z,1009.61
2017-11-03T03:01:16.043Z,1009.66
2017-11-03T03:02:16.037Z,1009.64
2017-11-03T03:03:16.021Z,1009.63
2017-11-03T03:04:16.011Z,1009.61
2017-11-03T03:05:16.005Z,1009.60
2017-11-03T03:06:15.988Z,1009.60
2017-11-03T03:07:15.977Z,1009.62
2017-11-03T03:08:15.969Z,1009.65
2017-11-03T03:09:15.958Z,1009.65
2017-11-03T03:10:15.953Z,1009.67
2017-11-03T03:11:15.940Z,1009.69
2017-11-03T03:12:15.928Z,1009.69
2017-11-03T03:13:15.916Z,1009.68
2017-11-03T03:14:15.907Z,1009.63
2017-11-03T03:15:15.892Z,1009.62
2017-11-03T03:16:15.880Z,1009.63
2017-11-03T03:17:15.876Z,1009.65
2017-11-03T03:18:15.861Z,1009.63
2017-11-03T03:19:15.852Z,1009.64
2017-11-03T03:20:15.838Z,1009.64
2017-11-03T03:21:15.831Z,1009.66
2017-11-03T03:22:15.818Z,1009.66
2017-11-03T03:23:15.808Z,1009.66
2017-11-03T03:24:15.800Z,1009.64
2017-11-03T03:25:15.784Z,1009.61
2017-11-03T03:26:15.778Z,1009.63
2017-11-03T03:27:15.773Z,1009.60
2017-11-03T03:28:36.788Z,1009.59
2017-11-03T03:29:15.743Z,1009.58
2017-11-03T03:30:15.734Z,1009.60
2017-11-03T03:31:15.722Z,1009.58
2017-11-03T03:32:15.716Z,1009.62
2017-11-03T03:33:15.700Z,1009.61
2017-11-03T03:34:15.691Z,1009.61
2017-11-03T03:35:15.686Z,1009.60
2017-11-03T03:36:15.671Z,1009.63
2017-11-03T03:37:15.667Z,1009.61
2017-11-03T03:38:15.648Z,1009.60
2017-11-03T03:39:15.636Z,1009.62
2017-11-03T03:40:15.635Z,1009.61
2017-11-03T03:41:15.615Z,1009.63
2017-11-03T03:42:15.606Z,1009.64
2017-11-03T03:43:15.595Z,1009.65
2017-11-03T03:44:15.583Z,1009.68
2017-11-03T03:45:15.574Z,1009.69
2017-11-03T03:46:15.570Z,1009.67
2017-11-03T03:47:15.550Z,1009.68
2017-11-03T03:48:15.539Z,1009.70
2017-11-03T03:49:15.534Z,1009.67
2017-11-03T03:50:15.519Z,1009.69
2017-11-03T03:51:15.507Z,1009.67
2017-11-03T03:52:15.505Z,1009.67
2017-11-03T03:53:15.487Z,1009.69
2017-11-03T03:54:15.476Z,1009.69
2017-11-03T03:55:15.467Z,1009.69
2017-11-03T03:56:15.458Z,1009.68
2017-11-03T03:57:15.451Z,1009.75
2017-11-03T03:58:15.435Z,1009.70
2017-11-03T03:59:15.420Z,1009.71
2017-11-03T04:00:15.412Z,1009.69
2017-11-03T04:01:15.399Z,1009.63
2017-11-03T04:02:15.393Z,1009.70
2017-11-03T04:03:15.378Z,1009.68
2017-11-03T04:04:15.376Z,1009.66
2017-11-03T04:05:15.357Z,1009.73
2017-11-03T04:06:15.347Z,1009.74
2017-11-03T04:07:15.334Z,1009.70
2017-11-03T04:08:15.335Z,1009.64
2017-11-03T04:09:15.314Z,1009.73
2017-11-03T04:10:15.314Z,1009.74
2017-11-03T04:11:15.291Z,1009.76
2017-11-03T04:12:15.290Z,1009.76
2017-11-03T04:13:15.271Z,1009.78
2017-11-03T04:14:15.266Z,1009.77
2017-11-03T04:15:15.249Z,1009.72
2017-11-03T04:16:15.240Z,1009.74
2017-11-03T04:17:15.228Z,1009.74
2017-11-03T04:18:15.225Z,1009.74
2017-11-03T04:19:15.206Z,1009.79
2017-11-03T04:20:15.195Z,1009.78
2017-11-03T04:21:15.187Z,1009.80
2017-11-03T04:22:15.173Z,1009.80
2017-11-03T04:23:15.164Z,1009.80
2017-11-03T04:24:15.154Z,1009.75
2017-11-03T04:25:15.140Z,1009.72
2017-11-03T04:26:15.133Z,1009.71
2017-11-03T04:27:15.118Z,1009.71
2017-11-03T04:28:15.113Z,1009.66
2017-11-03T04:29:15.100Z,1009.70
2017-11-03T04:30:15.090Z,1009.72
2017-11-03T04:31:15.081Z,1009.71
2017-11-03T04:32:15.064Z,1009.75
2017-11-03T04:33:15.061Z,1009.73
2017-11-03T04:34:15.045Z,1009.75
2017-11-03T04:35:15.036Z,1009.72
2017-11-03T04:36:15.020Z,1009.73
2017-11-03T04:37:15.012Z,1009.71
2017-11-03T04:38:15.003Z,1009.71
2017-11-03T04:39:14.992Z,1009.73
2017-11-03T04:40:14.980Z,1009.68
2017-11-03T04:41:14.979Z,1009.69
2017-11-03T04:42:14.958Z,1009.64
2017-11-03T04:43:14.943Z,1009.68
2017-11-03T04:44:14.935Z,1009.71
2017-11-03T04:45:14.922Z,1009.68
2017-11-03T04:46:14.917Z,1009.69
2017-11-03T04:47:14.900Z,1009.69
2017-11-03T04:48:14.890Z,1009.71
2017-11-03T04:49:14.884Z,1009.69
2017-11-03T04:50:14.869Z,1009.71
2017-11-03T04:51:14.861Z,1009.71
2017-11-03T04:52:14.846Z,1009.75
2017-11-03T04:53:14.841Z,1009.72
2017-11-03T04:54:14.824Z,1009.72
2017-11-03T04:55:14.812Z,1009.67
2017-11-03T04:56:14.802Z,1009.70
2017-11-03T04:57:14.792Z,1009.66
2017-11-03T04:58:14.782Z,1009.69
2017-11-03T04:59:14.771Z,1009.68
2017-11-03T05:00:14.763Z,1009.70
2017-11-03T05:01:14.748Z,1009.72
2017-11-03T05:02:14.736Z,1009.71
2017-11-03T05:03:14.725Z,1009.72
2017-11-03T05:04:14.718Z,1009.73
2017-11-03T05:05:14.704Z,1009.72
2017-11-03T05:06:14.692Z,1009.69
2017-11-03T05:07:14.680Z,1009.68
2017-11-03T05:08:14.672Z,1009.70
2017-11-03T05:09:14.659Z,1009.70
2017-11-03T05:10:14.653Z,1009.74
2017-11-03T05:11:14.636Z,1009.73
2017-11-03T05:12:14.625Z,1009.76
2017-11-03T05:13:14.615Z,1009.73
2017-11-03T05:14:14.605Z,1009.70
2017-11-03T05:15:14.594Z,1009.74
2017-11-03T05:16:14.582Z,1009.71
2017-11-03T05:17:14.570Z,1009.73
2017-11-03T05:18:14.559Z,1009.71
2017-11-03T05:19:14.547Z,1009.73
2017-11-03T05:20:14.538Z,1009.72
2017-11-03T05:21:14.526Z,1009.74
2017-11-03T05:22:14.516Z,1009.73
2017-11-03T05:23:14.503Z,1009.79
2017-11-03T05:24:14.493Z,1009.76
2017-11-03T05:25:14.482Z,1009.77
2017-11-03T05:26:14.470Z,1009.79
2017-11-03T05:27:14.460Z,1009.77
2017-11-03T05:28:14.450Z,1009.75
2017-11-03T05:29:14.437Z,1009.75
2017-11-03T05:30:14.428Z,1009.74
2017-11-03T05:31:14.419Z,1009.71
2017-11-03T05:32:14.405Z,1009.73
2017-11-03T05:33:14.393Z,1009.71
2017-11-03T05:34:14.385Z,1009.71
2017-11-03T05:35:14.381Z,1009.72
2017-11-03T05:36:14.362Z,1009.74
2017-11-03T05:37:14.350Z,1009.76
2017-11-03T05:38:14.341Z,1009.76
2017-11-03T05:39:14.328Z,1009.78
2017-11-03T05:40:14.316Z,1009.79
2017-11-03T05:41:14.392Z,1009.82
2017-11-03T05:42:14.298Z,1009.80
2017-11-03T05:43:14.283Z,1009.81
2017-11-03T05:44:14.274Z,1009.80
2017-11-03T05:45:14.262Z,1009.79
2017-11-03T05:46:14.249Z,1009.79
2017-11-03T05:47:14.246Z,1009.72
2017-11-03T05:48:14.233Z,1009.72
2017-11-03T05:49:14.241Z,1009.68
2017-11-03T05:50:14.205Z,1009.62
2017-11-03T05:51:14.195Z,1009.59
2017-11-03T05:52:14.187Z,1009.64
2017-11-03T05:53:14.174Z,1009.62
2017-11-03T05:54:14.164Z,1009.69
2017-11-03T05:55:14.152Z,1009.71
2017-11-03T05:56:14.146Z,1009.72
2017-11-03T05:57:14.135Z,1009.74
2017-11-03T05:58:14.118Z,1009.79
2017-11-03T05:59:14.107Z,1009.78
2017-11-03T06:00:14.100Z,1009.76
2017-11-03T06:01:14.085Z,1009.71
2017-11-03T06:02:14.074Z,1009.69
2017-11-03T06:03:14.063Z,1009.69
2017-11-03T06:04:14.054Z,1009.66
2017-11-03T06:05:14.045Z,1009.70
2017-11-03T06:06:14.040Z,1009.73
2017-11-03T06:07:14.024Z,1009.77
2017-11-03T06:08:14.007Z,1009.71
2017-11-03T06:09:13.997Z,1009.75
2017-11-03T06:10:13.992Z,1009.71
2017-11-03T06:11:13.975Z,1009.72
2017-11-03T06:12:13.973Z,1009.73
2017-11-03T06:13:13.957Z,1009.76
2017-11-03T06:14:13.943Z,1009.80
2017-11-03T06:15:13.931Z,1009.77
2017-11-03T06:16:13.926Z,1009.71
2017-11-03T06:17:13.907Z,1009.73
2017-11-03T06:18:13.901Z,1009.73
2017-11-03T06:19:13.888Z,1009.73
2017-11-03T06:20:13.885Z,1009.74
2017-11-03T06:21:13.869Z,1009.79
2017-11-03T06:22:13.855Z,1009.80
2017-11-03T06:23:13.847Z,1009.78
2017-11-03T06:24:13.834Z,1009.77
2017-11-03T06:25:13.821Z,1009.78
2017-11-03T06:26:13.823Z,1009.77
2017-11-03T06:27:13.797Z,1009.76
2017-11-03T06:28:13.788Z,1009.78
2017-11-03T06:29:13.778Z,1009.82
2017-11-03T06:30:13.776Z,1009.87
2017-11-03T06:31:13.755Z,1009.87
2017-11-03T06:32:13.743Z,1009.87
2017-11-03T06:33:13.734Z,1009.89
2017-11-03T06:34:13.721Z,1009.87
2017-11-03T06:35:13.716Z,1009.87
2017-11-03T06:36:13.700Z,1009.84
2017-11-03T06:37:13.690Z,1009.88
2017-11-03T06:38:13.679Z,1009.89
2017-11-03T06:39:13.670Z,1009.91
2017-11-03T06:40:13.672Z,1009.90
2017-11-03T06:41:13.652Z,1009.86
2017-11-03T06:42:13.632Z,1009.87
2017-11-03T06:43:13.622Z,1009.90
2017-11-03T06:44:13.612Z,1009.97
2017-11-03T06:45:13.600Z,1009.99
2017-11-03T06:46:13.591Z,1009.99
2017-11-03T06:47:13.578Z,1009.93
2017-11-03T06:48:13.566Z,1009.94
2017-11-03T06:49:13.560Z,1009.95
2017-11-03T06:50:13.544Z,1009.92
2017-11-03T06:51:13.547Z,1009.91
2017-11-03T06:52:13.525Z,1010.02
2017-11-03T06:53:13.514Z,1010.02
2017-11-03T06:54:13.503Z,1010.08
2017-11-03T06:55:13.490Z,1010.10
2017-11-03T06:56:13.478Z,1010.07
2017-11-03T06:57:13.470Z,1010.08
2017-11-03T06:58:13.458Z,1010.11
2017-11-03T06:59:13.448Z,1010.14
2017-11-03T07:00:13.436Z,1010.15
2017-11-03T07:01:13.427Z,1010.11
2017-11-03T07:02:13.414Z,1010.13
2017-11-03T07:03:13.404Z,1010.12
2017-11-03T07:04:13.394Z,1010.04
2017-11-03T07:05:13.384Z,1010.03
2017-11-03T07:06:13.370Z,1010.05
2017-11-03T07:07:13.360Z,1010.12
2017-11-03T07:08:13.350Z,1010.10
2017-11-03T07:09:13.336Z,1010.18
2017-11-03T07:10:13.331Z,1010.18
2017-11-03T07:11:13.318Z,1010.11
2017-11-03T07:12:13.306Z,1010.08
2017-11-03T07:13:13.292Z,1010.07
2017-11-03T07:14:13.290Z,1010.06
2017-11-03T07:15:13.271Z,1010.06
2017-11-03T07:16:13.272Z,1010.09
2017-11-03T07:17:13.254Z,1010.10
2017-11-03T07:18:13.243Z,1010.13
2017-11-03T07:19:13.230Z,1010.19
2017-11-03T07:20:13.216Z,1010.17
2017-11-03T07:21:13.208Z,1010.21
2017-11-03T07:22:13.193Z,1010.21
2017-11-03T07:23:13.184Z,1010.26
2017-11-03T07:24:13.179Z,1010.29
2017-11-03T07:25:13.165Z,1010.23
2017-11-03T07:26:13.151Z,1010.21
2017-11-03T07:27:13.138Z,1010.14
2017-11-03T07:28:13.132Z,1010.15
2017-11-03T07:29:13.118Z,1010.13
2017-11-03T07:30:13.106Z,1010.18
2017-11-03T07:31:13.096Z,1010.19
2017-11-03T07:32:13.083Z,1010.24
2017-11-03T07:33:13.073Z,1010.23
2017-11-03T07:34:13.064Z,1010.23
2017-11-03T07:35:13.053Z,1010.25
2017-11-03T07:36:13.042Z,1010.26
2017-11-03T07:37:13.030Z,1010.19
2017-11-03T07:38:13.019Z,1010.18
2017-11-03T07:39:13.009Z,1010.18
2017-11-03T07:40:12.998Z,1010.12
2017-11-03T07:41:12.988Z,1010.12
2017-11-03T07:42:12.977Z,1010.15
2017-11-03T07:43:12.964Z,1010.12
2017-11-03T07:44:12.963Z,1010.20
2017-11-03T07:45:12.951Z,1010.24
2017-11-03T07:46:12.953Z,1010.27
2017-11-03T07:47:12.922Z,1010.22
2017-11-03T07:48:12.916Z,1010.19
2017-11-03T07:49:12.902Z,1010.18
2017-11-03T07:50:12.892Z,1010.21
2017-11-03T07:51:12.880Z,1010.23
2017-11-03T07:52:12.867Z,1010.22
2017-11-03T07:53:12.859Z,1010.22
2017-11-03T07:54:12.849Z,1010.21
2017-11-03T07:55:12.843Z,1010.22
2017-11-03T07:56:12.825Z,1010.24
2017-11-03T07:57:12.816Z,1010.19
2017-11-03T07:58:12.803Z,1010.16
2017-11-03T07:59:12.797Z,1010.19
2017-11-03T08:00:12.786Z,1010.18
2017-11-03T08:01:12.771Z,1010.17
2017-11-03T08:02:12.762Z,1010.23
2017-11-03T08:03:12.754Z,1010.27
2017-11-03T08:04:12.739Z,1010.26
2017-11-03T08:05:12.733Z,1010.28
2017-11-03T08:06:12.719Z,1010.20
2017-11-03T08:07:12.712Z,1010.19
2017-11-03T08:08:12.754Z,1010.21
2017-11-03T08:09:12.691Z,1010.20
2017-11-03T08:10:12.681Z,1010.25
2017-11-03T08:11:12.664Z,1010.27
2017-11-03T08:12:12.654Z,1010.23
2017-11-03T08:13:12.643Z,1010.19
2017-11-03T08:14:12.634Z,1010.21
2017-11-03T08:15:12.623Z,1010.25
2017-11-03T08:16:12.613Z,1010.22
2017-11-03T08:17:12.602Z,1010.19
2017-11-03T08:18:12.595Z,1010.11
2017-11-03T08:19:12.587Z,1010.18
2017-11-03T08:20:12.569Z,1010.19
2017-11-03T08:21:12.559Z,1010.19
2017-11-03T08:22:12.549Z,1010.14
2017-11-03T08:23:12.592Z,1010.18
2017-11-03T08:24:12.529Z,1010.21
2017-11-03T08:25:12.517Z,1010.21
2017-11-03T08:26:12.508Z,1010.20
2017-11-03T08:27:12.505Z,1010.18
2017-11-03T08:28:12.486Z,1010.14
2017-11-03T08:29:12.474Z,1010.15
2017-11-03T08:30:12.466Z,1010.13
2017-11-03T08:31:12.456Z,1010.13
2017-11-03T08:32:12.444Z,1010.15
2017-11-03T08:33:12.438Z,1010.16
2017-11-03T08:34:12.422Z,1010.19
2017-11-03T08:35:12.417Z,1010.22
2017-11-03T08:36:12.402Z,1010.22
2017-11-03T08:37:12.393Z,1010.23
2017-11-03T08:38:12.381Z,1010.19
2017-11-03T08:39:12.376Z,1010.11
2017-11-03T08:40:12.366Z,1010.17
2017-11-03T08:41:12.352Z,1010.18
2017-11-03T08:42:12.340Z,1010.22
2017-11-03T08:43:12.329Z,1010.19
2017-11-03T08:44:12.320Z,1010.20
2017-11-03T08:45:12.310Z,1010.19
2017-11-03T08:46:12.298Z,1010.15
2017-11-03T08:47:12.291Z,1010.15
2017-11-03T08:48:12.277Z,1010.14
2017-11-03T08:49:12.267Z,1010.17
2017-11-03T08:50:12.259Z,1010.18
2017-11-03T08:51:12.246Z,1010.13
2017-11-03T08:52:12.239Z,1010.14
2017-11-03T08:53:12.227Z,1010.08
2017-11-03T08:54:12.233Z,1010.11
2017-11-03T08:55:12.211Z,1010.12
2017-11-03T08:56:12.195Z,1010.15
2017-11-03T08:57:12.186Z,1010.17
2017-11-03T08:58:12.178Z,1010.19
2017-11-03T08:59:12.170Z,1010.19
2017-11-03T09:00:12.159Z,1010.14
2017-11-03T09:01:12.150Z,1010.13
2017-11-03T09:02:12.136Z,1010.15
2017-11-03T09:03:12.124Z,1010.12
2017-11-03T09:04:12.117Z,1010.14
2017-11-03T09:05:12.109Z,1010.16
2017-11-03T09:06:12.096Z,1010.18
2017-11-03T09:07:12.085Z,1010.18
2017-11-03T09:08:12.105Z,1010.20
2017-11-03T09:09:12.073Z,1010.22
2017-11-03T09:10:12.067Z,1010.24
2017-11-03T09:11:12.051Z,1010.19
2017-11-03T09:12:12.071Z,1010.19
2017-11-03T09:13:12.265Z,1010.19
2017-11-03T09:14:12.023Z,1010.19
2017-11-03T09:15:12.013Z,1010.19
2017-11-03T09:16:14.250Z,1010.16
2017-11-03T09:17:11.987Z,1010.22
2017-11-03T09:18:14.360Z,1010.21
2017-11-03T09:19:11.970Z,1010.19
2017-11-03T09:20:14.423Z,1010.17
2017-11-03T09:21:14.380Z,1010.16
2017-11-03T09:22:14.672Z,1010.15
2017-11-03T09:23:14.125Z,1010.15
2017-11-03T09:24:13.740Z,1010.14
2017-11-03T09:25:12.597Z,1010.17
2017-11-03T09:26:11.899Z,1010.22
2017-11-03T09:27:13.822Z,1010.18
2017-11-03T09:28:13.001Z,1010.18
2017-11-03T09:29:14.178Z,1010.15
2017-11-03T09:30:14.373Z,1010.17
2017-11-03T09:31:14.500Z,1010.16
2017-11-03T09:32:14.463Z,1010.19
2017-11-03T09:33:13.902Z,1010.18
2017-11-03T09:34:13.996Z,1010.16
2017-11-03T09:35:14.952Z,1010.16
2017-11-03T09:36:16.751Z,1010.15
2017-11-03T09:37:14.250Z,1010.16
2017-11-03T09:38:15.559Z,1010.17
2017-11-03T09:39:14.294Z,1010.14
2017-11-03T09:40:13.863Z,1010.18
2017-11-03T09:41:14.221Z,1010.13
2017-11-03T09:42:15.528Z,1010.16
2017-11-03T09:43:14.029Z,1010.16
2017-11-03T09:44:13.357Z,1010.15
2017-11-03T09:45:15.600Z,1010.17
2017-11-03T09:46:14.233Z,1010.21
2017-11-03T09:47:13.870Z,1010.18
2017-11-03T09:48:14.195Z,1010.18
2017-11-03T09:49:14.801Z,1010.14
2017-11-03T09:50:14.628Z,1010.15
2017-11-03T09:51:16.292Z,1010.21
2017-11-03T09:52:16.358Z,1010.15
2017-11-03T09:53:14.625Z,1010.19
2017-11-03T09:54:14.481Z,1010.19
2017-11-03T09:55:14.861Z,1010.16
2017-11-03T09:56:15.477Z,1010.16
2017-11-03T09:57:14.321Z,1010.20
2017-11-03T09:58:14.546Z,1010.19
2017-11-03T09:59:14.577Z,1010.20
2017-11-03T10:00:12.412Z,1010.20
2017-11-03T10:01:14.490Z,1010.21
2017-11-03T10:02:14.444Z,1010.16
2017-11-03T10:03:13.394Z,1010.14
2017-11-03T10:04:13.186Z,1010.16
2017-11-03T10:05:14.126Z,1010.13
2017-11-03T10:06:13.536Z,1010.14
2017-11-03T10:07:12.583Z,1010.10
2017-11-03T10:08:13.866Z,1010.14
2017-11-03T10:09:11.495Z,1010.15
2017-11-03T10:10:11.481Z,1010.16
2017-11-03T10:11:11.475Z,1010.17
2017-11-03T10:12:11.469Z,1010.22
2017-11-03T10:13:11.456Z,1010.17
2017-11-03T10:14:11.454Z,1010.15
2017-11-03T10:15:11.436Z,1010.19
2017-11-03T10:16:11.432Z,1010.19
2017-11-03T10:17:11.420Z,1010.16
2017-11-03T10:18:11.413Z,1010.18
2017-11-03T10:19:11.417Z,1010.21
2017-11-03T10:20:11.394Z,1010.16
2017-11-03T10:21:11.388Z,1010.18
2017-11-03T10:22:11.379Z,1010.18
2017-11-03T10:23:11.364Z,1010.15
2017-11-03T10:24:11.359Z,1010.14
2017-11-03T10:25:11.348Z,1010.10
2017-11-03T10:26:11.336Z,1010.10
2017-11-03T10:27:11.327Z,1010.19
2017-11-03T10:28:11.313Z,1010.13
2017-11-03T10:29:11.310Z,1010.10
2017-11-03T10:30:11.303Z,1010.08
2017-11-03T10:31:11.293Z,1010.10
2017-11-03T10:32:11.280Z,1010.07
2017-11-03T10:33:11.281Z,1010.05
2017-11-03T10:34:11.268Z,1010.06
2017-11-03T10:35:11.253Z,1010.03
2017-11-03T10:36:11.527Z,1010.03
2017-11-03T10:37:11.236Z,1010.04
2017-11-03T10:38:12.555Z,1010.03
2017-11-03T10:39:11.217Z,1010.04
2017-11-03T10:40:11.211Z,1010.03
2017-11-03T10:41:11.196Z,1010.04
2017-11-03T10:42:11.188Z,1010.02
2017-11-03T10:43:11.184Z,1010.01
2017-11-03T10:44:11.275Z,1010.00
2017-11-03T10:45:11.168Z,1009.97
2017-11-03T10:46:11.154Z,1010.00
2017-11-03T10:47:11.148Z,1009.99
2017-11-03T10:48:11.136Z,1009.99
2017-11-03T10:49:11.125Z,1009.96
2017-11-03T10:50:11.116Z,1009.93
2017-11-03T10:51:11.120Z,1009.98
2017-11-03T10:52:11.098Z,1009.94
2017-11-03T10:53:11.088Z,1009.93
2017-11-03T10:54:11.084Z,1009.96
2017-11-03T10:55:11.069Z,1009.93
2017-11-03T10:56:11.065Z,1009.92
2017-11-03T10:57:11.054Z,1009.89
2017-11-03T10:58:11.044Z,1009.91
2017-11-03T10:59:11.033Z,1009.94
2017-11-03T11:00:11.035Z,1009.91
2017-11-03T11:01:11.032Z,1009.93
2017-11-03T11:02:11.008Z,1009.88
2017-11-03T11:03:10.999Z,1009.86
2017-11-03T11:04:10.993Z,1009.84
2017-11-03T11:05:10.981Z,1009.83
2017-11-03T11:06:10.972Z,1009.82
2017-11-03T11:07:10.964Z,1009.83
2017-11-03T11:08:10.954Z,1009.82
2017-11-03T11:09:10.943Z,1009.84
2017-11-03T11:10:10.938Z,1009.88
2017-11-03T11:11:10.927Z,1009.88
2017-11-03T11:12:10.918Z,1009.83
2017-11-03T11:13:10.913Z,1009.83
2017-11-03T11:14:10.899Z,1009.81
2017-11-03T11:15:10.891Z,1009.82
2017-11-03T11:16:10.954Z,1009.82
2017-11-03T11:17:10.868Z,1009.82
2017-11-03T11:18:10.864Z,1009.80
2017-11-03T11:19:10.856Z,1009.79
2017-11-03T11:20:10.846Z,1009.75
2017-11-03T11:21:10.832Z,1009.77
2017-11-03T11:22:10.828Z,1009.74
2017-11-03T11:23:11.098Z,1009.76
2017-11-03T11:24:10.819Z,1009.78
2017-11-03T11:25:11.849Z,1009.74
2017-11-03T11:26:10.795Z,1009.72
2017-11-03T11:27:12.058Z,1009.73
2017-11-03T11:28:10.777Z,1009.77
2017-11-03T11:29:10.769Z,1009.71
2017-11-03T11:30:10.762Z,1009.71
2017-11-03T11:31:12.388Z,1009.72
2017-11-03T11:32:11.829Z,1009.69
2017-11-03T11:33:11.916Z,1009.63
2017-11-03T11:34:12.764Z,1009.66
2017-11-03T11:35:10.826Z,1009.69
2017-11-03T11:36:10.714Z,1009.71
2017-11-03T11:37:13.352Z,1009.75
2017-11-03T11:38:12.526Z,1009.72
2017-11-03T11:39:13.276Z,1009.69
2017-11-03T11:40:10.808Z,1009.63
2017-11-03T11:41:10.925Z,1009.66
2017-11-03T11:42:11.495Z,1009.65
2017-11-03T11:43:13.586Z,1009.66
2017-11-03T11:44:11.501Z,1009.60
2017-11-03T11:45:10.864Z,1009.57
2017-11-03T11:46:10.869Z,1009.52
2017-11-03T11:47:10.610Z,1009.44
2017-11-03T11:48:13.534Z,1009.41
2017-11-03T11:49:12.828Z,1009.45
2017-11-03T11:50:12.182Z,1009.47
2017-11-03T11:51:13.707Z,1009.47
2017-11-03T11:52:13.374Z,1009.46
2017-11-03T11:53:11.004Z,1009.43
2017-11-03T11:54:10.550Z,1009.39
2017-11-03T11:55:10.543Z,1009.38
2017-11-03T11:56:10.529Z,1009.32
2017-11-03T11:57:10.532Z,1009.31
2017-11-03T11:58:10.513Z,1009.30
2017-11-03T11:59:10.504Z,1009.29
2017-11-03T12:00:10.488Z,1009.28
2017-11-03T12:01:10.482Z,1009.29
2017-11-03T12:02:10.474Z,1009.29
2017-11-03T12:03:10.471Z,1009.27
2017-11-03T12:04:10.456Z,1009.28
2017-11-03T12:05:10.447Z,1009.27